sensor_id;sensor_type;location;lat;lon;timestamp;P1;durP1;ratioP1;P2;durP2;ratioP2
12441;SDS011;6285;48.804;9.220;2023-05-07T00:00:00;6.53;;;5.80;;
12441;SDS011;6285;48.804;9.220;2023-05-07T00:02:29;6.38;;;5.78;;
12441;SDS011;6285;48.804;9.220;2023-05-07T00:04:56;11.50;;;5.95;;
12441;SDS011;6285;48.804;9.220;2023-05-07T00:07:23;6.50;;;5.38;;
12441;SDS011;6285;48.804;9.220;2023-05-07T00:09:50;8.23;;;5.38;;
12441;SDS011;6285;48.804;9.220;2023-05-07T00:12:17;5.90;;;4.95;;
12441;SDS011;6285;48.804;9.220;2023-05-07T00:14:44;7.25;;;5.38;;
12441;SDS011;6285;48.804;9.220;2023-05-07T00:17:11;7.30;;;5.45;;
12441;SDS011;6285;48.804;9.220;2023-05-07T00:19:39;6.72;;;4.93;;
12441;SDS011;6285;48.804;9.220;2023-05-07T00:22:06;6.75;;;4.82;;
12441;SDS011;6285;48.804;9.220;2023-05-07T00:24:34;5.85;;;5.10;;
12441;SDS011;6285;48.804;9.220;2023-05-07T00:27:01;8.63;;;5.38;;
12441;SDS011;6285;48.804;9.220;2023-05-07T00:29:28;6.35;;;4.68;;
12441;SDS011;6285;48.804;9.220;2023-05-07T00:31:55;7.88;;;4.97;;
12441;SDS011;6285;48.804;9.220;2023-05-07T00:34:22;5.75;;;4.70;;
12441;SDS011;6285;48.804;9.220;2023-05-07T00:36:50;7.93;;;5.00;;
12441;SDS011;6285;48.804;9.220;2023-05-07T00:39:18;6.53;;;4.57;;
12441;SDS011;6285;48.804;9.220;2023-05-07T00:41:45;5.82;;;4.65;;
12441;SDS011;6285;48.804;9.220;2023-05-07T00:44:12;6.05;;;5.15;;
12441;SDS011;6285;48.804;9.220;2023-05-07T00:46:39;6.10;;;4.85;;
12441;SDS011;6285;48.804;9.220;2023-05-07T00:49:07;7.13;;;5.07;;
12441;SDS011;6285;48.804;9.220;2023-05-07T00:51:34;8.35;;;4.90;;
12441;SDS011;6285;48.804;9.220;2023-05-07T00:54:02;5.28;;;4.78;;
12441;SDS011;6285;48.804;9.220;2023-05-07T00:56:29;5.47;;;4.60;;
12441;SDS011;6285;48.804;9.220;2023-05-07T00:58:57;5.60;;;4.70;;
12441;SDS011;6285;48.804;9.220;2023-05-07T01:01:24;5.32;;;4.50;;
12441;SDS011;6285;48.804;9.220;2023-05-07T01:03:51;5.25;;;4.47;;
12441;SDS011;6285;48.804;9.220;2023-05-07T01:06:18;7.15;;;5.05;;
12441;SDS011;6285;48.804;9.220;2023-05-07T01:08:46;6.38;;;5.60;;
12441;SDS011;6285;48.804;9.220;2023-05-07T01:11:16;7.90;;;5.22;;
12441;SDS011;6285;48.804;9.220;2023-05-07T01:13:45;7.95;;;6.88;;
12441;SDS011;6285;48.804;9.220;2023-05-07T01:16:12;6.95;;;5.57;;
12441;SDS011;6285;48.804;9.220;2023-05-07T01:18:39;5.60;;;5.10;;
12441;SDS011;6285;48.804;9.220;2023-05-07T01:21:06;6.63;;;4.88;;
12441;SDS011;6285;48.804;9.220;2023-05-07T01:23:38;5.97;;;4.80;;
12441;SDS011;6285;48.804;9.220;2023-05-07T01:26:05;9.02;;;5.55;;
12441;SDS011;6285;48.804;9.220;2023-05-07T01:28:32;7.03;;;4.82;;
12441;SDS011;6285;48.804;9.220;2023-05-07T01:31:00;5.47;;;4.60;;
12441;SDS011;6285;48.804;9.220;2023-05-07T01:33:28;5.07;;;4.47;;
12441;SDS011;6285;48.804;9.220;2023-05-07T01:35:57;5.25;;;4.75;;
12441;SDS011;6285;48.804;9.220;2023-05-07T01:38:27;7.80;;;4.68;;
12441;SDS011;6285;48.804;9.220;2023-05-07T01:40:57;7.78;;;4.68;;
12441;SDS011;6285;48.804;9.220;2023-05-07T01:43:24;7.72;;;4.95;;
12441;SDS011;6285;48.804;9.220;2023-05-07T01:45:51;7.95;;;4.07;;
12441;SDS011;6285;48.804;9.220;2023-05-07T01:48:19;5.72;;;4.13;;
12441;SDS011;6285;48.804;9.220;2023-05-07T01:50:46;6.43;;;4.97;;
12441;SDS011;6285;48.804;9.220;2023-05-07T01:53:14;7.40;;;4.70;;
12441;SDS011;6285;48.804;9.220;2023-05-07T01:55:41;5.40;;;4.75;;
12441;SDS011;6285;48.804;9.220;2023-05-07T01:58:09;5.22;;;4.72;;
12441;SDS011;6285;48.804;9.220;2023-05-07T02:00:36;6.63;;;4.30;;
12441;SDS011;6285;48.804;9.220;2023-05-07T02:03:03;5.70;;;4.20;;
12441;SDS011;6285;48.804;9.220;2023-05-07T02:05:30;7.63;;;6.10;;
12441;SDS011;6285;48.804;9.220;2023-05-07T02:07:58;5.22;;;4.20;;
12441;SDS011;6285;48.804;9.220;2023-05-07T02:10:25;6.63;;;4.35;;
12441;SDS011;6285;48.804;9.220;2023-05-07T02:12:52;5.22;;;4.70;;
12441;SDS011;6285;48.804;9.220;2023-05-07T02:15:20;5.78;;;5.00;;
12441;SDS011;6285;48.804;9.220;2023-05-07T02:18:00;5.47;;;4.97;;
12441;SDS011;6285;48.804;9.220;2023-05-07T02:20:28;7.47;;;5.30;;
12441;SDS011;6285;48.804;9.220;2023-05-07T02:22:55;6.10;;;4.85;;
12441;SDS011;6285;48.804;9.220;2023-05-07T02:25:22;5.00;;;4.50;;
12441;SDS011;6285;48.804;9.220;2023-05-07T02:27:49;5.72;;;5.00;;
12441;SDS011;6285;48.804;9.220;2023-05-07T02:30:16;6.35;;;4.53;;
12441;SDS011;6285;48.804;9.220;2023-05-07T02:32:45;6.45;;;5.20;;
12441;SDS011;6285;48.804;9.220;2023-05-07T02:35:12;6.57;;;5.20;;
12441;SDS011;6285;48.804;9.220;2023-05-07T02:37:39;7.13;;;4.75;;
12441;SDS011;6285;48.804;9.220;2023-05-07T02:40:06;5.63;;;4.85;;
12441;SDS011;6285;48.804;9.220;2023-05-07T02:42:33;5.68;;;4.55;;
12441;SDS011;6285;48.804;9.220;2023-05-07T02:45:00;4.93;;;4.40;;
12441;SDS011;6285;48.804;9.220;2023-05-07T02:47:28;5.18;;;4.25;;
12441;SDS011;6285;48.804;9.220;2023-05-07T02:49:56;5.78;;;4.63;;
12441;SDS011;6285;48.804;9.220;2023-05-07T02:52:23;6.47;;;4.68;;
12441;SDS011;6285;48.804;9.220;2023-05-07T02:54:50;4.50;;;4.10;;
12441;SDS011;6285;48.804;9.220;2023-05-07T02:57:17;5.50;;;4.70;;
12441;SDS011;6285;48.804;9.220;2023-05-07T02:59:44;6.07;;;4.70;;
12441;SDS011;6285;48.804;9.220;2023-05-07T03:02:11;6.85;;;4.72;;
12441;SDS011;6285;48.804;9.220;2023-05-07T03:04:39;7.38;;;5.32;;
12441;SDS011;6285;48.804;9.220;2023-05-07T03:07:08;6.10;;;4.93;;
12441;SDS011;6285;48.804;9.220;2023-05-07T03:09:35;5.28;;;4.50;;
12441;SDS011;6285;48.804;9.220;2023-05-07T03:12:03;5.50;;;5.00;;
12441;SDS011;6285;48.804;9.220;2023-05-07T03:14:30;6.43;;;5.03;;
12441;SDS011;6285;48.804;9.220;2023-05-07T03:16:57;6.07;;;4.93;;
12441;SDS011;6285;48.804;9.220;2023-05-07T03:19:24;6.30;;;4.70;;
12441;SDS011;6285;48.804;9.220;2023-05-07T03:21:51;5.25;;;4.68;;
12441;SDS011;6285;48.804;9.220;2023-05-07T03:24:19;5.55;;;4.85;;
12441;SDS011;6285;48.804;9.220;2023-05-07T03:26:46;9.15;;;5.10;;
12441;SDS011;6285;48.804;9.220;2023-05-07T03:29:13;8.18;;;4.68;;
12441;SDS011;6285;48.804;9.220;2023-05-07T03:31:40;6.18;;;4.18;;
12441;SDS011;6285;48.804;9.220;2023-05-07T03:34:08;5.60;;;4.30;;
12441;SDS011;6285;48.804;9.220;2023-05-07T03:36:35;7.50;;;6.20;;
12441;SDS011;6285;48.804;9.220;2023-05-07T03:39:02;8.77;;;5.93;;
12441;SDS011;6285;48.804;9.220;2023-05-07T03:41:30;5.45;;;4.80;;
12441;SDS011;6285;48.804;9.220;2023-05-07T03:43:57;7.20;;;4.30;;
12441;SDS011;6285;48.804;9.220;2023-05-07T03:46:24;7.05;;;5.40;;
12441;SDS011;6285;48.804;9.220;2023-05-07T03:48:53;6.97;;;4.32;;
12441;SDS011;6285;48.804;9.220;2023-05-07T03:51:19;6.85;;;4.07;;
12441;SDS011;6285;48.804;9.220;2023-05-07T03:53:46;5.55;;;4.80;;
12441;SDS011;6285;48.804;9.220;2023-05-07T03:56:14;6.18;;;4.05;;
12441;SDS011;6285;48.804;9.220;2023-05-07T03:58:42;4.95;;;4.30;;
12441;SDS011;6285;48.804;9.220;2023-05-07T04:01:09;4.97;;;4.28;;
12441;SDS011;6285;48.804;9.220;2023-05-07T04:03:36;6.20;;;4.65;;
12441;SDS011;6285;48.804;9.220;2023-05-07T04:06:03;5.90;;;4.53;;
12441;SDS011;6285;48.804;9.220;2023-05-07T04:08:30;5.85;;;4.60;;
12441;SDS011;6285;48.804;9.220;2023-05-07T04:10:58;6.03;;;4.30;;
12441;SDS011;6285;48.804;9.220;2023-05-07T04:13:25;6.50;;;4.75;;
12441;SDS011;6285;48.804;9.220;2023-05-07T04:15:54;5.82;;;4.15;;
12441;SDS011;6285;48.804;9.220;2023-05-07T04:18:21;5.55;;;4.50;;
12441;SDS011;6285;48.804;9.220;2023-05-07T04:20:48;8.25;;;4.38;;
12441;SDS011;6285;48.804;9.220;2023-05-07T04:23:16;5.10;;;4.35;;
12441;SDS011;6285;48.804;9.220;2023-05-07T04:25:43;6.70;;;4.50;;
12441;SDS011;6285;48.804;9.220;2023-05-07T04:28:10;4.88;;;4.38;;
12441;SDS011;6285;48.804;9.220;2023-05-07T04:30:37;5.93;;;5.18;;
12441;SDS011;6285;48.804;9.220;2023-05-07T04:33:06;6.28;;;4.85;;
12441;SDS011;6285;48.804;9.220;2023-05-07T04:35:33;5.88;;;4.78;;
12441;SDS011;6285;48.804;9.220;2023-05-07T04:38:00;5.15;;;4.65;;
12441;SDS011;6285;48.804;9.220;2023-05-07T04:40:27;6.93;;;5.15;;
12441;SDS011;6285;48.804;9.220;2023-05-07T04:42:55;6.22;;;4.90;;
12441;SDS011;6285;48.804;9.220;2023-05-07T04:45:22;6.40;;;4.72;;
12441;SDS011;6285;48.804;9.220;2023-05-07T04:47:49;6.40;;;4.32;;
12441;SDS011;6285;48.804;9.220;2023-05-07T04:50:17;6.50;;;4.50;;
12441;SDS011;6285;48.804;9.220;2023-05-07T04:52:45;4.85;;;3.97;;
12441;SDS011;6285;48.804;9.220;2023-05-07T04:55:12;4.47;;;4.07;;
12441;SDS011;6285;48.804;9.220;2023-05-07T04:57:39;6.07;;;4.45;;
12441;SDS011;6285;48.804;9.220;2023-05-07T05:00:07;4.85;;;4.30;;
12441;SDS011;6285;48.804;9.220;2023-05-07T05:02:35;4.95;;;4.47;;
12441;SDS011;6285;48.804;9.220;2023-05-07T05:05:02;5.72;;;4.95;;
12441;SDS011;6285;48.804;9.220;2023-05-07T05:07:30;5.53;;;4.68;;
12441;SDS011;6285;48.804;9.220;2023-05-07T05:09:57;5.75;;;4.63;;
12441;SDS011;6285;48.804;9.220;2023-05-07T05:12:25;4.97;;;4.38;;
12441;SDS011;6285;48.804;9.220;2023-05-07T05:14:52;5.88;;;4.57;;
12441;SDS011;6285;48.804;9.220;2023-05-07T05:17:19;6.45;;;4.90;;
12441;SDS011;6285;48.804;9.220;2023-05-07T05:19:46;5.93;;;4.93;;
12441;SDS011;6285;48.804;9.220;2023-05-07T05:22:13;5.97;;;4.45;;
12441;SDS011;6285;48.804;9.220;2023-05-07T05:24:41;4.80;;;4.40;;
12441;SDS011;6285;48.804;9.220;2023-05-07T05:27:08;7.38;;;4.30;;
12441;SDS011;6285;48.804;9.220;2023-05-07T05:29:35;4.72;;;3.97;;
12441;SDS011;6285;48.804;9.220;2023-05-07T05:32:02;6.93;;;4.40;;
12441;SDS011;6285;48.804;9.220;2023-05-07T05:34:29;5.72;;;4.40;;
12441;SDS011;6285;48.804;9.220;2023-05-07T05:36:58;5.10;;;4.60;;
12441;SDS011;6285;48.804;9.220;2023-05-07T05:39:25;4.95;;;4.03;;
12441;SDS011;6285;48.804;9.220;2023-05-07T05:41:53;5.72;;;3.95;;
12441;SDS011;6285;48.804;9.220;2023-05-07T05:44:20;6.13;;;4.40;;
12441;SDS011;6285;48.804;9.220;2023-05-07T05:46:47;4.85;;;4.35;;
12441;SDS011;6285;48.804;9.220;2023-05-07T05:49:15;5.32;;;4.18;;
12441;SDS011;6285;48.804;9.220;2023-05-07T05:51:42;4.25;;;3.83;;
12441;SDS011;6285;48.804;9.220;2023-05-07T05:54:09;6.00;;;4.10;;
12441;SDS011;6285;48.804;9.220;2023-05-07T05:56:36;5.57;;;4.50;;
12441;SDS011;6285;48.804;9.220;2023-05-07T05:59:05;6.22;;;4.57;;
12441;SDS011;6285;48.804;9.220;2023-05-07T06:01:32;7.60;;;4.70;;
12441;SDS011;6285;48.804;9.220;2023-05-07T06:03:59;5.97;;;5.05;;
12441;SDS011;6285;48.804;9.220;2023-05-07T06:06:26;7.25;;;4.88;;
12441;SDS011;6285;48.804;9.220;2023-05-07T06:08:53;5.63;;;4.88;;
12441;SDS011;6285;48.804;9.220;2023-05-07T06:11:20;7.00;;;5.05;;
12441;SDS011;6285;48.804;9.220;2023-05-07T06:13:47;5.53;;;4.95;;
12441;SDS011;6285;48.804;9.220;2023-05-07T06:16:16;6.97;;;5.28;;
12441;SDS011;6285;48.804;9.220;2023-05-07T06:18:43;7.53;;;4.65;;
12441;SDS011;6285;48.804;9.220;2023-05-07T06:21:11;5.07;;;4.57;;
12441;SDS011;6285;48.804;9.220;2023-05-07T06:23:38;4.88;;;4.47;;
12441;SDS011;6285;48.804;9.220;2023-05-07T06:26:06;5.38;;;4.78;;
12441;SDS011;6285;48.804;9.220;2023-05-07T06:28:33;6.35;;;4.97;;
12441;SDS011;6285;48.804;9.220;2023-05-07T06:31:10;5.70;;;5.10;;
12441;SDS011;6285;48.804;9.220;2023-05-07T06:33:39;5.53;;;4.63;;
12441;SDS011;6285;48.804;9.220;2023-05-07T06:36:06;6.15;;;5.15;;
12441;SDS011;6285;48.804;9.220;2023-05-07T06:38:33;9.27;;;5.20;;
12441;SDS011;6285;48.804;9.220;2023-05-07T06:41:00;5.80;;;4.88;;
12441;SDS011;6285;48.804;9.220;2023-05-07T06:43:27;5.47;;;4.40;;
12441;SDS011;6285;48.804;9.220;2023-05-07T06:45:54;6.40;;;5.10;;
12441;SDS011;6285;48.804;9.220;2023-05-07T06:48:21;4.85;;;4.32;;
12441;SDS011;6285;48.804;9.220;2023-05-07T06:50:50;5.65;;;5.15;;
12441;SDS011;6285;48.804;9.220;2023-05-07T06:53:17;6.47;;;4.90;;
12441;SDS011;6285;48.804;9.220;2023-05-07T06:55:43;4.90;;;4.40;;
12441;SDS011;6285;48.804;9.220;2023-05-07T06:58:10;5.40;;;4.30;;
12441;SDS011;6285;48.804;9.220;2023-05-07T07:00:37;5.32;;;4.80;;
12441;SDS011;6285;48.804;9.220;2023-05-07T07:03:05;6.28;;;4.45;;
12441;SDS011;6285;48.804;9.220;2023-05-07T07:05:32;5.50;;;4.90;;
12441;SDS011;6285;48.804;9.220;2023-05-07T07:08:01;5.10;;;4.60;;
12441;SDS011;6285;48.804;9.220;2023-05-07T07:10:28;6.03;;;4.57;;
12441;SDS011;6285;48.804;9.220;2023-05-07T07:12:55;5.93;;;5.07;;
12441;SDS011;6285;48.804;9.220;2023-05-07T07:15:22;5.80;;;4.90;;
12441;SDS011;6285;48.804;9.220;2023-05-07T07:17:50;5.20;;;4.25;;
12441;SDS011;6285;48.804;9.220;2023-05-07T07:20:17;5.35;;;4.32;;
12441;SDS011;6285;48.804;9.220;2023-05-07T07:22:44;6.78;;;3.75;;
12441;SDS011;6285;48.804;9.220;2023-05-07T07:25:12;5.07;;;4.13;;
12441;SDS011;6285;48.804;9.220;2023-05-07T07:27:39;4.40;;;3.88;;
12441;SDS011;6285;48.804;9.220;2023-05-07T07:30:06;4.53;;;3.60;;
12441;SDS011;6285;48.804;9.220;2023-05-07T07:32:33;3.97;;;3.58;;
12441;SDS011;6285;48.804;9.220;2023-05-07T07:35:01;4.00;;;3.70;;
12441;SDS011;6285;48.804;9.220;2023-05-07T07:37:28;5.18;;;3.58;;
12441;SDS011;6285;48.804;9.220;2023-05-07T07:39:55;3.78;;;3.13;;
12441;SDS011;6285;48.804;9.220;2023-05-07T07:42:23;4.00;;;3.20;;
12441;SDS011;6285;48.804;9.220;2023-05-07T07:44:50;4.10;;;3.00;;
12441;SDS011;6285;48.804;9.220;2023-05-07T07:47:17;4.00;;;3.20;;
12441;SDS011;6285;48.804;9.220;2023-05-07T07:49:44;4.40;;;3.50;;
12441;SDS011;6285;48.804;9.220;2023-05-07T07:52:11;3.90;;;3.60;;
12441;SDS011;6285;48.804;9.220;2023-05-07T07:54:38;5.18;;;3.60;;
12441;SDS011;6285;48.804;9.220;2023-05-07T07:57:05;5.63;;;5.05;;
12441;SDS011;6285;48.804;9.220;2023-05-07T07:59:33;4.72;;;4.28;;
12441;SDS011;6285;48.804;9.220;2023-05-07T08:02:00;5.18;;;4.10;;
12441;SDS011;6285;48.804;9.220;2023-05-07T08:04:27;4.47;;;3.35;;
12441;SDS011;6285;48.804;9.220;2023-05-07T08:06:55;4.78;;;4.30;;
12441;SDS011;6285;48.804;9.220;2023-05-07T08:09:22;5.03;;;3.78;;
12441;SDS011;6285;48.804;9.220;2023-05-07T08:11:49;5.03;;;4.00;;
12441;SDS011;6285;48.804;9.220;2023-05-07T08:14:16;4.45;;;4.05;;
12441;SDS011;6285;48.804;9.220;2023-05-07T08:16:45;6.35;;;4.70;;
12441;SDS011;6285;48.804;9.220;2023-05-07T08:19:12;6.82;;;4.10;;
12441;SDS011;6285;48.804;9.220;2023-05-07T08:21:39;4.05;;;3.70;;
12441;SDS011;6285;48.804;9.220;2023-05-07T08:24:06;4.38;;;3.90;;
12441;SDS011;6285;48.804;9.220;2023-05-07T08:26:33;4.07;;;3.42;;
12441;SDS011;6285;48.804;9.220;2023-05-07T08:29:00;3.30;;;3.00;;
12441;SDS011;6285;48.804;9.220;2023-05-07T08:31:27;3.70;;;3.28;;
12441;SDS011;6285;48.804;9.220;2023-05-07T08:33:56;3.63;;;3.00;;
12441;SDS011;6285;48.804;9.220;2023-05-07T08:36:23;4.28;;;2.97;;
12441;SDS011;6285;48.804;9.220;2023-05-07T08:38:50;3.60;;;2.85;;
12441;SDS011;6285;48.804;9.220;2023-05-07T08:41:17;3.42;;;2.97;;
12441;SDS011;6285;48.804;9.220;2023-05-07T08:43:46;5.72;;;2.55;;
12441;SDS011;6285;48.804;9.220;2023-05-07T08:46:16;3.40;;;2.90;;
12441;SDS011;6285;48.804;9.220;2023-05-07T08:48:44;3.20;;;2.90;;
12441;SDS011;6285;48.804;9.220;2023-05-07T08:51:14;4.18;;;2.67;;
12441;SDS011;6285;48.804;9.220;2023-05-07T08:53:42;4.85;;;2.85;;
12441;SDS011;6285;48.804;9.220;2023-05-07T08:56:10;2.90;;;2.60;;
12441;SDS011;6285;48.804;9.220;2023-05-07T08:58:37;2.67;;;2.47;;
12441;SDS011;6285;48.804;9.220;2023-05-07T09:01:07;3.92;;;2.50;;
12441;SDS011;6285;48.804;9.220;2023-05-07T09:03:35;2.58;;;2.30;;
12441;SDS011;6285;48.804;9.220;2023-05-07T09:06:03;3.72;;;2.50;;
12441;SDS011;6285;48.804;9.220;2023-05-07T09:08:32;2.50;;;2.20;;
12441;SDS011;6285;48.804;9.220;2023-05-07T09:10:59;6.20;;;2.70;;
12441;SDS011;6285;48.804;9.220;2023-05-07T09:13:26;3.80;;;2.70;;
12441;SDS011;6285;48.804;9.220;2023-05-07T09:15:54;4.50;;;2.50;;
12441;SDS011;6285;48.804;9.220;2023-05-07T09:18:21;3.05;;;2.30;;
12441;SDS011;6285;48.804;9.220;2023-05-07T09:20:50;3.08;;;2.25;;
12441;SDS011;6285;48.804;9.220;2023-05-07T09:23:17;3.95;;;2.17;;
12441;SDS011;6285;48.804;9.220;2023-05-07T09:25:48;2.45;;;1.90;;
12441;SDS011;6285;48.804;9.220;2023-05-07T09:28:15;3.80;;;1.95;;
12441;SDS011;6285;48.804;9.220;2023-05-07T09:30:43;4.57;;;2.10;;
12441;SDS011;6285;48.804;9.220;2023-05-07T09:33:10;3.50;;;2.13;;
12441;SDS011;6285;48.804;9.220;2023-05-07T09:35:37;2.78;;;2.13;;
12441;SDS011;6285;48.804;9.220;2023-05-07T09:38:04;2.20;;;1.88;;
12441;SDS011;6285;48.804;9.220;2023-05-07T09:40:31;4.20;;;1.95;;
12441;SDS011;6285;48.804;9.220;2023-05-07T09:43:09;3.42;;;1.90;;
12441;SDS011;6285;48.804;9.220;2023-05-07T09:45:37;2.28;;;2.08;;
12441;SDS011;6285;48.804;9.220;2023-05-07T09:48:04;3.45;;;1.80;;
12441;SDS011;6285;48.804;9.220;2023-05-07T09:50:35;3.88;;;2.13;;
12441;SDS011;6285;48.804;9.220;2023-05-07T09:53:04;1.95;;;1.75;;
12441;SDS011;6285;48.804;9.220;2023-05-07T09:55:32;1.83;;;1.52;;
12441;SDS011;6285;48.804;9.220;2023-05-07T09:58:00;4.47;;;2.10;;
12441;SDS011;6285;48.804;9.220;2023-05-07T10:00:28;2.10;;;1.75;;
12441;SDS011;6285;48.804;9.220;2023-05-07T10:02:57;2.58;;;2.00;;
12441;SDS011;6285;48.804;9.220;2023-05-07T10:05:24;4.40;;;1.98;;
12441;SDS011;6285;48.804;9.220;2023-05-07T10:07:52;3.40;;;2.30;;
12441;SDS011;6285;48.804;9.220;2023-05-07T10:10:19;2.45;;;2.03;;
12441;SDS011;6285;48.804;9.220;2023-05-07T10:12:46;2.53;;;2.00;;
12441;SDS011;6285;48.804;9.220;2023-05-07T10:15:13;3.90;;;2.10;;
12441;SDS011;6285;48.804;9.220;2023-05-07T10:17:41;2.90;;;1.98;;
12441;SDS011;6285;48.804;9.220;2023-05-07T10:20:08;3.30;;;2.20;;
12441;SDS011;6285;48.804;9.220;2023-05-07T10:22:37;3.60;;;2.25;;
12441;SDS011;6285;48.804;9.220;2023-05-07T10:25:05;3.17;;;2.30;;
12441;SDS011;6285;48.804;9.220;2023-05-07T10:27:39;2.60;;;2.30;;
12441;SDS011;6285;48.804;9.220;2023-05-07T10:30:08;3.90;;;2.30;;
12441;SDS011;6285;48.804;9.220;2023-05-07T10:32:45;2.78;;;1.77;;
12441;SDS011;6285;48.804;9.220;2023-05-07T10:35:16;2.95;;;1.67;;
12441;SDS011;6285;48.804;9.220;2023-05-07T10:37:45;3.00;;;2.00;;
12441;SDS011;6285;48.804;9.220;2023-05-07T10:40:12;2.10;;;1.90;;
12441;SDS011;6285;48.804;9.220;2023-05-07T10:42:52;3.22;;;1.90;;
12441;SDS011;6285;48.804;9.220;2023-05-07T10:45:20;2.58;;;1.83;;
12441;SDS011;6285;48.804;9.220;2023-05-07T10:50:44;2.08;;;1.80;;
12441;SDS011;6285;48.804;9.220;2023-05-07T10:53:22;2.40;;;2.20;;
12441;SDS011;6285;48.804;9.220;2023-05-07T10:58:52;4.25;;;1.80;;
12441;SDS011;6285;48.804;9.220;2023-05-07T11:04:18;4.80;;;1.90;;
12441;SDS011;6285;48.804;9.220;2023-05-07T11:10:03;2.13;;;1.88;;
12441;SDS011;6285;48.804;9.220;2023-05-07T11:12:48;3.33;;;1.70;;
12441;SDS011;6285;48.804;9.220;2023-05-07T11:15:40;4.57;;;2.08;;
12441;SDS011;6285;48.804;9.220;2023-05-07T11:18:11;2.42;;;2.03;;
12441;SDS011;6285;48.804;9.220;2023-05-07T11:20:50;3.10;;;2.05;;
12441;SDS011;6285;48.804;9.220;2023-05-07T11:26:26;2.45;;;2.10;;
12441;SDS011;6285;48.804;9.220;2023-05-07T11:28:54;5.18;;;2.67;;
12441;SDS011;6285;48.804;9.220;2023-05-07T11:31:22;2.50;;;2.30;;
12441;SDS011;6285;48.804;9.220;2023-05-07T11:33:51;2.83;;;1.90;;
12441;SDS011;6285;48.804;9.220;2023-05-07T11:36:20;1.75;;;1.60;;
12441;SDS011;6285;48.804;9.220;2023-05-07T11:38:48;2.92;;;1.85;;
12441;SDS011;6285;48.804;9.220;2023-05-07T11:41:15;2.55;;;2.00;;
12441;SDS011;6285;48.804;9.220;2023-05-07T11:43:57;3.40;;;1.75;;
12441;SDS011;6285;48.804;9.220;2023-05-07T11:46:25;2.75;;;2.50;;
12441;SDS011;6285;48.804;9.220;2023-05-07T11:48:53;3.00;;;1.80;;
12441;SDS011;6285;48.804;9.220;2023-05-07T11:51:23;1.65;;;1.55;;
12441;SDS011;6285;48.804;9.220;2023-05-07T11:53:51;2.42;;;2.00;;
12441;SDS011;6285;48.804;9.220;2023-05-07T11:56:18;4.20;;;2.08;;
12441;SDS011;6285;48.804;9.220;2023-05-07T11:58:46;2.38;;;1.83;;
12441;SDS011;6285;48.804;9.220;2023-05-07T12:01:14;3.10;;;1.80;;
12441;SDS011;6285;48.804;9.220;2023-05-07T12:03:44;4.63;;;3.15;;
12441;SDS011;6285;48.804;9.220;2023-05-07T12:06:11;2.35;;;2.00;;
12441;SDS011;6285;48.804;9.220;2023-05-07T12:08:40;2.70;;;1.85;;
12441;SDS011;6285;48.804;9.220;2023-05-07T12:11:08;6.47;;;2.17;;
12441;SDS011;6285;48.804;9.220;2023-05-07T12:13:36;5.50;;;2.20;;
12441;SDS011;6285;48.804;9.220;2023-05-07T12:16:05;5.72;;;2.45;;
12441;SDS011;6285;48.804;9.220;2023-05-07T12:18:33;7.45;;;3.13;;
12441;SDS011;6285;48.804;9.220;2023-05-07T12:21:00;4.78;;;2.92;;
12441;SDS011;6285;48.804;9.220;2023-05-07T12:23:28;3.83;;;2.42;;
12441;SDS011;6285;48.804;9.220;2023-05-07T12:25:56;4.55;;;2.25;;
12441;SDS011;6285;48.804;9.220;2023-05-07T12:28:25;6.30;;;2.35;;
12441;SDS011;6285;48.804;9.220;2023-05-07T12:30:52;5.00;;;2.75;;
12441;SDS011;6285;48.804;9.220;2023-05-07T12:33:23;6.25;;;3.65;;
12441;SDS011;6285;48.804;9.220;2023-05-07T12:35:52;7.05;;;3.50;;
12441;SDS011;6285;48.804;9.220;2023-05-07T12:38:20;10.10;;;5.40;;
12441;SDS011;6285;48.804;9.220;2023-05-07T12:40:48;4.25;;;3.38;;
12441;SDS011;6285;48.804;9.220;2023-05-07T12:43:18;5.30;;;3.13;;
12441;SDS011;6285;48.804;9.220;2023-05-07T12:45:46;5.97;;;3.63;;
12441;SDS011;6285;48.804;9.220;2023-05-07T12:48:13;4.60;;;3.47;;
12441;SDS011;6285;48.804;9.220;2023-05-07T12:50:40;5.90;;;3.08;;
12441;SDS011;6285;48.804;9.220;2023-05-07T12:53:08;5.45;;;3.10;;
12441;SDS011;6285;48.804;9.220;2023-05-07T12:55:42;6.43;;;3.67;;
12441;SDS011;6285;48.804;9.220;2023-05-07T12:58:16;6.05;;;3.25;;
12441;SDS011;6285;48.804;9.220;2023-05-07T13:00:45;7.95;;;3.05;;
12441;SDS011;6285;48.804;9.220;2023-05-07T13:03:20;5.25;;;2.83;;
12441;SDS011;6285;48.804;9.220;2023-05-07T13:05:48;4.90;;;2.20;;
12441;SDS011;6285;48.804;9.220;2023-05-07T13:08:23;3.75;;;2.13;;
12441;SDS011;6285;48.804;9.220;2023-05-07T13:10:50;2.20;;;1.42;;
12441;SDS011;6285;48.804;9.220;2023-05-07T13:13:18;5.40;;;1.50;;
12441;SDS011;6285;48.804;9.220;2023-05-07T13:15:46;3.03;;;1.92;;
12441;SDS011;6285;48.804;9.220;2023-05-07T13:18:13;5.43;;;2.28;;
12441;SDS011;6285;48.804;9.220;2023-05-07T13:20:40;9.38;;;6.50;;
12441;SDS011;6285;48.804;9.220;2023-05-07T13:23:07;17.13;;;10.20;;
12441;SDS011;6285;48.804;9.220;2023-05-07T13:25:34;12.40;;;8.13;;
12441;SDS011;6285;48.804;9.220;2023-05-07T13:28:01;6.13;;;3.53;;
12441;SDS011;6285;48.804;9.220;2023-05-07T13:30:29;5.65;;;2.85;;
12441;SDS011;6285;48.804;9.220;2023-05-07T13:32:57;8.77;;;2.83;;
12441;SDS011;6285;48.804;9.220;2023-05-07T13:35:25;5.85;;;3.20;;
12441;SDS011;6285;48.804;9.220;2023-05-07T13:37:52;5.07;;;2.63;;
12441;SDS011;6285;48.804;9.220;2023-05-07T13:40:19;9.23;;;3.08;;
12441;SDS011;6285;48.804;9.220;2023-05-07T13:42:46;2.30;;;1.48;;
12441;SDS011;6285;48.804;9.220;2023-05-07T13:45:13;1.98;;;1.00;;
12441;SDS011;6285;48.804;9.220;2023-05-07T13:47:41;1.75;;;1.20;;
12441;SDS011;6285;48.804;9.220;2023-05-07T13:50:10;5.40;;;2.05;;
12441;SDS011;6285;48.804;9.220;2023-05-07T13:52:40;6.18;;;2.65;;
12441;SDS011;6285;48.804;9.220;2023-05-07T13:55:08;3.17;;;2.08;;
12441;SDS011;6285;48.804;9.220;2023-05-07T13:57:35;4.50;;;2.15;;
12441;SDS011;6285;48.804;9.220;2023-05-07T14:00:02;5.95;;;2.53;;
12441;SDS011;6285;48.804;9.220;2023-05-07T14:02:30;6.93;;;4.60;;
12441;SDS011;6285;48.804;9.220;2023-05-07T14:04:57;6.55;;;4.63;;
12441;SDS011;6285;48.804;9.220;2023-05-07T14:07:26;8.55;;;5.40;;
12441;SDS011;6285;48.804;9.220;2023-05-07T14:48:51;3.70;;;2.67;;
12441;SDS011;6285;48.804;9.220;2023-05-07T14:51:18;4.68;;;3.38;;
12441;SDS011;6285;48.804;9.220;2023-05-07T14:53:45;3.30;;;2.53;;
12441;SDS011;6285;48.804;9.220;2023-05-07T14:56:12;11.43;;;7.70;;
12441;SDS011;6285;48.804;9.220;2023-05-07T14:58:40;6.28;;;3.13;;
12441;SDS011;6285;48.804;9.220;2023-05-07T15:01:07;5.55;;;2.95;;
12441;SDS011;6285;48.804;9.220;2023-05-07T15:03:34;12.73;;;8.05;;
12441;SDS011;6285;48.804;9.220;2023-05-07T15:06:03;8.45;;;6.35;;
12441;SDS011;6285;48.804;9.220;2023-05-07T15:08:30;9.82;;;6.15;;
12441;SDS011;6285;48.804;9.220;2023-05-07T15:10:57;8.93;;;6.25;;
12441;SDS011;6285;48.804;9.220;2023-05-07T15:13:24;7.60;;;5.07;;
12441;SDS011;6285;48.804;9.220;2023-05-07T15:15:51;4.90;;;4.20;;
12441;SDS011;6285;48.804;9.220;2023-05-07T15:18:18;4.95;;;3.65;;
12441;SDS011;6285;48.804;9.220;2023-05-07T15:20:45;4.80;;;3.20;;
12441;SDS011;6285;48.804;9.220;2023-05-07T15:23:13;3.55;;;3.10;;
12441;SDS011;6285;48.804;9.220;2023-05-07T15:25:40;3.50;;;2.75;;
12441;SDS011;6285;48.804;9.220;2023-05-07T15:28:07;4.10;;;2.92;;
12441;SDS011;6285;48.804;9.220;2023-05-07T15:30:34;3.78;;;2.80;;
12441;SDS011;6285;48.804;9.220;2023-05-07T15:33:02;4.25;;;3.15;;
12441;SDS011;6285;48.804;9.220;2023-05-07T15:35:29;3.85;;;2.95;;
12441;SDS011;6285;48.804;9.220;2023-05-07T15:37:56;3.53;;;3.10;;
12441;SDS011;6285;48.804;9.220;2023-05-07T15:40:24;3.95;;;2.47;;
12441;SDS011;6285;48.804;9.220;2023-05-07T15:42:51;6.50;;;3.30;;
12441;SDS011;6285;48.804;9.220;2023-05-07T15:45:20;6.40;;;5.80;;
12441;SDS011;6285;48.804;9.220;2023-05-07T15:47:48;3.42;;;2.80;;
12441;SDS011;6285;48.804;9.220;2023-05-07T15:50:15;5.72;;;3.08;;
12441;SDS011;6285;48.804;9.220;2023-05-07T15:52:42;6.82;;;4.30;;
12441;SDS011;6285;48.804;9.220;2023-05-07T15:55:11;3.55;;;2.92;;
12441;SDS011;6285;48.804;9.220;2023-05-07T15:57:39;6.38;;;3.88;;